createdAt,value
2023-04-23T00:01:30.011Z,100593.91
2023-04-23T00:04:54.287Z,100593.19
2023-04-23T00:08:18.870Z,100590.69
2023-04-23T00:11:42.040Z,100581.13
2023-04-23T00:15:05.373Z,100578.75
2023-04-23T00:18:27.026Z,100576.09
2023-04-23T00:21:48.955Z,100559.53
2023-04-23T00:25:11.581Z,100557.00
2023-04-23T00:28:34.381Z,100554.50
2023-04-23T00:31:56.046Z,100550.28
2023-04-23T00:35:20.734Z,100548.03
2023-04-23T00:38:42.677Z,100546.53
2023-04-23T00:42:10.573Z,100547.97
2023-04-23T00:45:33.869Z,100545.78
2023-04-23T00:48:55.637Z,100547.75
2023-04-23T00:52:17.054Z,100550.19
2023-04-23T00:55:38.670Z,100544.16
2023-04-23T00:59:02.999Z,100554.28
2023-04-23T01:02:28.335Z,100541.38
2023-04-23T01:05:50.321Z,100540.16
2023-04-23T01:09:12.268Z,100544.94
2023-04-23T01:12:35.396Z,100547.22
2023-04-23T01:15:57.523Z,100537.00
2023-04-23T01:19:20.826Z,100537.25
2023-04-23T01:22:43.768Z,100531.41
2023-04-23T01:26:05.051Z,100532.00
2023-04-23T01:29:27.374Z,100534.13
2023-04-23T01:32:50.248Z,100533.72
2023-04-23T01:36:12.549Z,100529.66
2023-04-23T01:39:37.060Z,100534.44
2023-04-23T01:42:59.232Z,100533.91
2023-04-23T01:46:22.154Z,100528.03
2023-04-23T01:49:43.664Z,100522.84
2023-04-23T01:53:04.949Z,100527.47
2023-04-23T01:56:30.632Z,100521.28
2023-04-23T01:59:52.097Z,100524.09
2023-04-23T02:03:13.765Z,100525.94
2023-04-23T02:06:35.261Z,100525.25
2023-04-23T02:09:56.422Z,100523.41
2023-04-23T02:13:19.428Z,100516.38
2023-04-23T02:16:40.772Z,100517.94
2023-04-23T02:20:02.385Z,100516.38
2023-04-23T02:23:24.624Z,100514.56
2023-04-23T02:26:45.964Z,100518.06
2023-04-23T02:30:11.453Z,100509.22
2023-04-23T02:33:33.225Z,100504.72
2023-04-23T02:36:54.523Z,100517.25
2023-04-23T02:40:15.884Z,100504.03
2023-04-23T02:43:37.695Z,100501.34
2023-04-23T02:47:00.856Z,100503.03
2023-04-23T02:50:22.675Z,100505.72
2023-04-23T02:53:44.007Z,100503.72
2023-04-23T02:57:06.550Z,100502.75
2023-04-23T03:00:29.491Z,100501.63
2023-04-23T03:03:52.825Z,100491.94
2023-04-23T03:07:17.351Z,100482.25
2023-04-23T03:10:38.852Z,100487.41
2023-04-23T03:14:00.455Z,100487.59
2023-04-23T03:17:21.694Z,100484.06
2023-04-23T03:20:44.789Z,100491.94
2023-04-23T03:24:06.827Z,100492.06
2023-04-23T03:27:28.457Z,100484.75
2023-04-23T03:30:50.239Z,100498.09
2023-04-23T03:34:12.099Z,100492.63
2023-04-23T03:37:35.398Z,100466.78
2023-04-23T03:40:58.229Z,100488.28
2023-04-23T03:44:20.187Z,100494.72
2023-04-23T03:47:42.013Z,100486.72
2023-04-23T03:51:04.179Z,100484.22
2023-04-23T03:54:32.928Z,100482.53
2023-04-23T03:58:14.737Z,100471.16
2023-04-23T04:01:38.934Z,100491.66
2023-04-23T04:05:01.540Z,100494.34
2023-04-23T04:08:23.057Z,100488.88
2023-04-23T04:11:45.571Z,100488.00
2023-04-23T04:15:08.348Z,100480.84
2023-04-23T04:18:29.530Z,100474.66
2023-04-23T04:21:51.366Z,100481.69
2023-04-23T04:25:13.443Z,100482.53
2023-04-23T04:28:37.505Z,100478.19
2023-04-23T04:31:59.778Z,100467.66
2023-04-23T04:35:21.584Z,100465.97
2023-04-23T04:38:43.841Z,100464.28
2023-04-23T04:42:06.947Z,100456.28
2023-04-23T04:45:29.761Z,100454.47
2023-04-23T04:48:51.500Z,100452.63
2023-04-23T04:52:13.127Z,100454.72
2023-04-23T04:55:34.386Z,100468.94
2023-04-23T04:58:56.010Z,100478.88
2023-04-23T05:02:20.135Z,100483.41
2023-04-23T05:05:42.084Z,100478.06
2023-04-23T05:09:03.730Z,100479.59
2023-04-23T05:12:25.160Z,100482.28
2023-04-23T05:15:47.049Z,100491.25
2023-04-23T05:19:09.838Z,100478.75
2023-04-23T05:22:31.630Z,100494.34
2023-04-23T05:25:55.937Z,100489.69
2023-04-23T05:29:19.351Z,100491.06
2023-04-23T05:32:41.539Z,100495.16
2023-04-23T05:36:04.526Z,100491.19
2023-04-23T05:39:26.164Z,100491.72
2023-04-23T05:42:47.993Z,100494.97
2023-04-23T05:46:09.281Z,100488.31
2023-04-23T05:49:31.006Z,100491.38
2023-04-23T05:52:54.112Z,100482.78
2023-04-23T05:56:15.683Z,100495.25
2023-04-23T05:59:37.276Z,100503.34
2023-04-23T06:02:59.223Z,100492.88
2023-04-23T06:06:20.746Z,100498.16
2023-04-23T06:09:43.817Z,100490.22
2023-04-23T06:13:05.313Z,100485.66
2023-04-23T06:16:26.873Z,100482.06
2023-04-23T06:19:48.382Z,100486.16
2023-04-23T06:23:09.831Z,100486.63
2023-04-23T06:26:33.316Z,100487.19
2023-04-23T06:30:00.124Z,100481.47
2023-04-23T06:33:21.235Z,100491.06
2023-04-23T06:36:43.553Z,100479.78
2023-04-23T06:40:06.650Z,100481.03
2023-04-23T06:43:29.665Z,100475.22
2023-04-23T06:47:17.752Z,100477.31
2023-04-23T06:50:39.673Z,100485.06
2023-04-23T06:54:00.978Z,100484.06
2023-04-23T06:57:22.936Z,100476.56
2023-04-23T07:00:45.957Z,100477.44
2023-04-23T07:04:08.339Z,100473.25
2023-04-23T07:07:29.604Z,100482.03
2023-04-23T07:10:51.677Z,100488.53
2023-04-23T07:14:13.009Z,100487.53
2023-04-23T07:17:36.113Z,100483.38
2023-04-23T07:20:58.050Z,100481.69
2023-04-23T07:24:19.703Z,100478.19
2023-04-23T07:27:41.235Z,100480.53
2023-04-23T07:31:03.521Z,100477.34
2023-04-23T07:34:26.464Z,100482.19
2023-04-23T07:37:48.031Z,100495.94
2023-04-23T07:41:09.508Z,100502.16
2023-04-23T07:44:31.149Z,100497.31
2023-04-23T07:47:53.054Z,100501.13
2023-04-23T07:51:16.078Z,100513.22
2023-04-23T07:54:37.544Z,100500.47
2023-04-23T07:57:58.843Z,100505.47
2023-04-23T08:01:20.094Z,100509.69
2023-04-23T08:04:41.717Z,100502.50
2023-04-23T08:08:04.894Z,100506.00
2023-04-23T08:11:26.616Z,100510.53
2023-04-23T08:14:47.935Z,100511.53
2023-04-23T08:18:13.263Z,100512.38
2023-04-23T08:21:35.053Z,100517.25
2023-04-23T08:24:58.160Z,100519.59
2023-04-23T08:28:19.707Z,100522.47
2023-04-23T08:31:41.527Z,100529.00
2023-04-23T08:35:03.130Z,100527.31
2023-04-23T08:38:24.505Z,100530.00
2023-04-23T08:41:55.195Z,100537.38
2023-04-23T08:45:16.859Z,100539.38
2023-04-23T08:48:40.962Z,100534.34
2023-04-23T08:52:14.361Z,100540.72
2023-04-23T08:55:37.098Z,100542.41
2023-04-23T08:59:00.424Z,100532.50
2023-04-23T09:02:22.871Z,100534.03
2023-04-23T09:05:45.508Z,100539.72
2023-04-23T09:09:08.482Z,100543.22
2023-04-23T09:12:31.923Z,100539.06
2023-04-23T09:15:55.058Z,100544.09
2023-04-23T09:19:17.713Z,100544.22
2023-04-23T09:22:40.543Z,100539.72
2023-04-23T09:26:06.809Z,100535.69
2023-04-23T09:29:28.511Z,100542.75
2023-04-23T09:32:53.105Z,100541.72
2023-04-23T09:36:16.510Z,100539.38
2023-04-23T09:39:38.280Z,100540.91
2023-04-23T09:42:59.836Z,100544.75
2023-04-23T09:46:34.743Z,100543.41
2023-04-23T09:49:57.479Z,100531.19
2023-04-23T09:53:20.867Z,100536.69
2023-04-23T09:56:42.987Z,100524.78
2023-04-23T10:00:15.591Z,100537.88
2023-04-23T10:03:39.228Z,100532.00
2023-04-23T10:07:19.055Z,100527.13
2023-04-23T10:14:09.105Z,100522.94
2023-04-23T10:17:30.883Z,100533.47
2023-04-23T10:20:54.460Z,100532.66
2023-04-23T10:24:21.126Z,100539.38
2023-04-23T10:27:53.845Z,100542.22
2023-04-23T10:31:16.801Z,100543.91
2023-04-23T10:34:40.722Z,100547.44
2023-04-23T10:38:02.837Z,100558.84
2023-04-23T10:41:30.812Z,100566.22
2023-04-23T10:45:04.742Z,100572.19
2023-04-23T10:48:28.971Z,100578.34
2023-04-23T10:55:18.521Z,100578.09
2023-04-23T10:58:51.830Z,100575.75
2023-04-23T11:02:14.284Z,100574.41
2023-04-23T11:05:36.923Z,100584.25
2023-04-23T11:08:58.420Z,100579.09
2023-04-23T11:12:33.574Z,100582.91
2023-04-23T11:16:18.697Z,100581.38
2023-04-23T11:19:41.536Z,100580.16
2023-04-23T11:23:03.370Z,100590.72
2023-04-23T11:26:31.613Z,100587.34
2023-04-23T11:29:54.359Z,100585.81
2023-04-23T11:33:18.312Z,100581.91
2023-04-23T11:36:40.661Z,100587.81
2023-04-23T11:40:08.212Z,100575.47
2023-04-23T11:43:30.329Z,100584.00
2023-04-23T11:46:52.069Z,100583.50
2023-04-23T11:50:20.238Z,100582.28
2023-04-23T11:53:47.309Z,100577.59
2023-04-23T11:57:08.478Z,100590.16
2023-04-23T12:00:30.304Z,100585.50
2023-04-23T12:03:51.471Z,100596.53
2023-04-23T12:07:25.733Z,100593.31
2023-04-23T12:10:50.643Z,100599.44
2023-04-23T12:14:14.820Z,100601.94
2023-04-23T12:17:36.533Z,100619.47
2023-04-23T12:21:05.905Z,100637.88
2023-04-23T12:24:30.599Z,100632.59
2023-04-23T12:27:52.067Z,100624.19
2023-04-23T12:31:21.707Z,100632.59
2023-04-23T12:34:54.016Z,100637.66
2023-04-23T12:38:33.550Z,100617.63
2023-04-23T12:42:00.074Z,100616.22
2023-04-23T12:45:21.667Z,100618.75
2023-04-23T12:48:43.109Z,100624.03
2023-04-23T12:52:06.295Z,100623.19
2023-04-23T12:55:27.750Z,100621.72
2023-04-23T12:58:50.417Z,100623.91
2023-04-23T13:02:12.171Z,100631.50
2023-04-23T13:05:33.469Z,100624.97
2023-04-23T13:08:55.509Z,100612.13
2023-04-23T13:12:17.037Z,100613.03
2023-04-23T13:15:39.704Z,100612.06
2023-04-23T13:19:01.903Z,100611.75
2023-04-23T13:22:28.248Z,100609.63
2023-04-23T13:25:49.876Z,100607.84
2023-04-23T13:29:11.700Z,100595.16
2023-04-23T13:32:34.804Z,100593.03
2023-04-23T13:35:56.627Z,100597.31
2023-04-23T13:39:18.412Z,100595.13
2023-04-23T13:42:39.860Z,100593.66
2023-04-23T13:46:01.918Z,100588.00
2023-04-23T13:49:25.011Z,100586.16
2023-04-23T13:52:46.489Z,100588.16
2023-04-23T13:56:08.357Z,100587.34
2023-04-23T13:59:29.813Z,100583.16
2023-04-23T14:02:51.604Z,100582.97
2023-04-23T14:06:14.389Z,100576.28
2023-04-23T14:09:36.055Z,100580.31
2023-04-23T14:12:57.980Z,100577.31
2023-04-23T14:16:19.797Z,100582.66
2023-04-23T14:19:41.800Z,100576.59
2023-04-23T14:23:32.951Z,100573.44
2023-04-23T14:26:54.652Z,100576.25
2023-04-23T14:30:17.845Z,100575.09
2023-04-23T14:33:39.181Z,100577.31
2023-04-23T14:37:00.897Z,100573.94
2023-04-23T14:40:23.510Z,100576.25
2023-04-23T14:43:45.143Z,100562.31
2023-04-23T14:47:08.107Z,100566.81
2023-04-23T14:50:29.927Z,100558.28
2023-04-23T14:53:53.972Z,100547.44
2023-04-23T14:57:18.258Z,100548.03
2023-04-23T15:00:40.061Z,100545.91
2023-04-23T15:04:01.891Z,100537.84
2023-04-23T15:07:23.856Z,100532.41
2023-04-23T15:10:45.553Z,100526.19
2023-04-23T15:14:19.152Z,100525.34
2023-04-23T15:17:40.833Z,100524.53
2023-04-23T15:21:03.727Z,100531.25
2023-04-23T15:24:25.210Z,100526.78
2023-04-23T15:27:47.030Z,100525.72
2023-04-23T15:31:09.846Z,100525.47
2023-04-23T15:34:31.289Z,100516.81
2023-04-23T15:37:53.045Z,100525.00
2023-04-23T15:41:15.311Z,100514.31
2023-04-23T15:44:36.913Z,100507.63
2023-04-23T15:47:59.760Z,100507.31
2023-04-23T15:51:21.471Z,100499.81
2023-04-23T15:54:43.345Z,100494.59
2023-04-23T15:58:04.777Z,100488.19
2023-04-23T16:01:27.416Z,100486.81
2023-04-23T16:04:51.504Z,100484.25
2023-04-23T16:08:14.226Z,100475.22
2023-04-23T16:11:36.202Z,100484.63
2023-04-23T16:14:57.877Z,100483.25
2023-04-23T16:18:19.517Z,100477.28
2023-04-23T16:21:42.568Z,100482.38
2023-04-23T16:25:03.816Z,100482.06
2023-04-23T16:28:25.437Z,100467.38
2023-04-23T16:31:46.594Z,100462.16
2023-04-23T16:35:08.733Z,100467.94
2023-04-23T16:38:31.713Z,100465.16
2023-04-23T16:41:53.731Z,100471.19
2023-04-23T16:45:15.623Z,100465.19
2023-04-23T16:48:37.188Z,100459.03
2023-04-23T16:51:58.483Z,100461.56
2023-04-23T16:55:21.601Z,100450.72
2023-04-23T16:58:43.020Z,100449.34
2023-04-23T17:02:04.805Z,100446.13
2023-04-23T17:05:27.013Z,100449.28
2023-04-23T17:08:48.904Z,100452.00
2023-04-23T17:12:12.133Z,100448.94
2023-04-23T17:15:33.939Z,100434.25
2023-04-23T17:18:55.954Z,100436.75
2023-04-23T17:22:18.049Z,100440.56
2023-04-23T17:25:39.562Z,100434.97
2023-04-23T17:29:02.081Z,100429.22
2023-04-23T17:32:23.706Z,100429.00
2023-04-23T17:35:46.742Z,100424.88
2023-04-23T17:39:08.512Z,100417.88
2023-04-23T17:42:29.932Z,100432.41
2023-04-23T17:45:52.667Z,100420.03
2023-04-23T17:49:14.281Z,100417.75
2023-04-23T17:52:36.089Z,100420.50
2023-04-23T17:56:00.384Z,100416.56
2023-04-23T17:59:22.053Z,100416.31
2023-04-23T18:02:45.982Z,100420.22
2023-04-23T18:06:09.209Z,100435.25
2023-04-23T18:09:31.027Z,100433.97
2023-04-23T18:12:52.347Z,100427.25
2023-04-23T18:16:14.102Z,100434.81
2023-04-23T18:19:37.269Z,100426.31
2023-04-23T18:22:58.793Z,100433.03
2023-04-23T18:26:20.057Z,100430.72
2023-04-23T18:29:42.817Z,100442.81
2023-04-23T18:33:12.009Z,100440.47
2023-04-23T18:36:38.243Z,100436.28
2023-04-23T18:40:00.116Z,100439.94
2023-04-23T18:43:21.498Z,100441.81
2023-04-23T18:46:43.454Z,100450.78
2023-04-23T18:50:11.695Z,100444.44
2023-04-23T18:53:37.133Z,100452.47
2023-04-23T18:56:58.607Z,100454.44
2023-04-23T19:00:20.132Z,100460.94
2023-04-23T19:03:41.828Z,100460.41
2023-04-23T19:07:04.354Z,100463.38
2023-04-23T19:10:27.283Z,100466.00
2023-04-23T19:13:49.333Z,100461.59
2023-04-23T19:17:10.532Z,100463.56
2023-04-23T19:20:32.181Z,100461.53
2023-04-23T19:23:54.146Z,100463.31
2023-04-23T19:27:16.972Z,100463.41
2023-04-23T19:30:38.881Z,100461.69
2023-04-23T19:34:00.458Z,100467.97
2023-04-23T19:37:22.252Z,100446.50
2023-04-23T19:40:44.413Z,100452.47
2023-04-23T19:44:07.063Z,100445.75
2023-04-23T19:47:28.356Z,100450.72
2023-04-23T19:50:50.399Z,100447.84
2023-04-23T19:54:11.892Z,100437.91
2023-04-23T19:57:33.117Z,100435.88
2023-04-23T20:00:56.904Z,100440.13
2023-04-23T20:04:18.636Z,100438.94
2023-04-23T20:07:40.408Z,100439.00
2023-04-23T20:11:02.081Z,100441.28
2023-04-23T20:14:23.215Z,100435.03
2023-04-23T20:17:46.164Z,100439.44
2023-04-23T20:21:09.229Z,100435.84
2023-04-23T20:24:31.032Z,100426.91
2023-04-23T20:27:52.565Z,100421.19
2023-04-23T20:31:14.135Z,100424.28
2023-04-23T20:34:37.154Z,100420.53
2023-04-23T20:37:58.469Z,100422.66
2023-04-23T20:41:20.291Z,100414.25
2023-04-23T20:44:45.681Z,100413.84
2023-04-23T20:48:08.181Z,100403.63
2023-04-23T20:51:34.232Z,100392.41
2023-04-23T20:54:56.108Z,100389.34
2023-04-23T20:58:18.054Z,100384.44
2023-04-23T21:01:39.296Z,100376.34
2023-04-23T21:05:00.884Z,100379.44
2023-04-23T21:08:23.701Z,100386.06
2023-04-23T21:11:45.459Z,100388.31
2023-04-23T21:15:09.401Z,100374.19
2023-04-23T21:18:31.321Z,100369.28
2023-04-23T21:21:52.698Z,100367.09
2023-04-23T21:25:15.534Z,100365.53
2023-04-23T21:28:37.681Z,100366.53
2023-04-23T21:31:59.003Z,100364.00
2023-04-23T21:35:20.293Z,100366.94
2023-04-23T21:38:42.026Z,100367.69
2023-04-23T21:42:04.972Z,100356.63
2023-04-23T21:45:26.410Z,100358.72
2023-04-23T21:48:50.383Z,100340.66
2023-04-23T21:52:11.756Z,100344.59
2023-04-23T21:55:32.931Z,100338.88
2023-04-23T21:58:55.991Z,100339.97
2023-04-23T22:02:17.678Z,100334.78
2023-04-23T22:05:39.933Z,100328.63
2023-04-23T22:09:02.054Z,100324.41
2023-04-23T22:12:23.915Z,100316.00
2023-04-23T22:15:48.754Z,100310.84
2023-04-23T22:19:10.318Z,100311.13
2023-04-23T22:22:32.076Z,100307.78
2023-04-23T22:25:54.347Z,100311.38
2023-04-23T22:29:16.085Z,100315.03
2023-04-23T22:32:39.523Z,100322.50
2023-04-23T22:36:01.231Z,100326.13
2023-04-23T22:39:23.095Z,100321.78
2023-04-23T22:42:44.137Z,100320.94
2023-04-23T22:46:05.448Z,100314.91
2023-04-23T22:49:28.379Z,100323.34
2023-04-23T22:52:50.384Z,100319.13
2023-04-23T22:56:11.803Z,100313.00
2023-04-23T22:59:33.349Z,100307.78
2023-04-23T23:02:54.665Z,100311.56
2023-04-23T23:06:17.994Z,100305.00
2023-04-23T23:09:39.562Z,100307.78
2023-04-23T23:13:01.426Z,100304.72
2023-04-23T23:16:22.987Z,100293.50
2023-04-23T23:19:44.713Z,100298.25
2023-04-23T23:23:08.142Z,100293.22
2023-04-23T23:26:30.095Z,100289.16
2023-04-23T23:29:51.386Z,100268.25
2023-04-23T23:33:12.492Z,100263.22
2023-04-23T23:36:34.312Z,100246.00
2023-04-23T23:39:57.155Z,100239.16
2023-04-23T23:43:18.808Z,100242.78
2023-04-23T23:46:40.670Z,100239.97
2023-04-23T23:50:02.083Z,100228.22
2023-04-23T23:53:24.105Z,100231.41
2023-04-23T23:56:47.142Z,100232.69
